sensor_id;sensor_type;location;lat;lon;timestamp;P1;durP1;ratioP1;P2;durP2;ratioP2
31206;SDS011;17834;52.992;8.856;2024-03-06T00:00:26;15.90;;;6.95;;
31206;SDS011;17834;52.992;8.856;2024-03-06T00:02:52;17.40;;;7.40;;
31206;SDS011;17834;52.992;8.856;2024-03-06T00:05:17;18.17;;;6.97;;
31206;SDS011;17834;52.992;8.856;2024-03-06T00:07:43;15.15;;;7.15;;
31206;SDS011;17834;52.992;8.856;2024-03-06T00:10:09;15.77;;;6.85;;
31206;SDS011;17834;52.992;8.856;2024-03-06T00:12:34;12.50;;;6.63;;
31206;SDS011;17834;52.992;8.856;2024-03-06T00:15:00;16.85;;;7.40;;
31206;SDS011;17834;52.992;8.856;2024-03-06T00:17:25;14.40;;;6.60;;
31206;SDS011;17834;52.992;8.856;2024-03-06T00:19:51;16.48;;;8.27;;
31206;SDS011;17834;52.992;8.856;2024-03-06T00:22:17;12.70;;;7.00;;
31206;SDS011;17834;52.992;8.856;2024-03-06T00:24:43;16.27;;;7.05;;
31206;SDS011;17834;52.992;8.856;2024-03-06T00:27:08;13.88;;;7.25;;
31206;SDS011;17834;52.992;8.856;2024-03-06T00:29:35;14.27;;;7.00;;
31206;SDS011;17834;52.992;8.856;2024-03-06T00:32:02;17.52;;;7.75;;
31206;SDS011;17834;52.992;8.856;2024-03-06T00:34:28;16.73;;;6.85;;
31206;SDS011;17834;52.992;8.856;2024-03-06T00:36:54;18.42;;;8.85;;
31206;SDS011;17834;52.992;8.856;2024-03-06T00:39:20;16.90;;;7.75;;
31206;SDS011;17834;52.992;8.856;2024-03-06T00:41:45;15.20;;;7.35;;
31206;SDS011;17834;52.992;8.856;2024-03-06T00:44:10;17.02;;;7.88;;
31206;SDS011;17834;52.992;8.856;2024-03-06T00:46:36;12.93;;;6.85;;
31206;SDS011;17834;52.992;8.856;2024-03-06T00:49:01;22.13;;;7.88;;
31206;SDS011;17834;52.992;8.856;2024-03-06T00:51:27;14.43;;;7.20;;
31206;SDS011;17834;52.992;8.856;2024-03-06T00:53:52;15.27;;;7.35;;
31206;SDS011;17834;52.992;8.856;2024-03-06T00:56:18;16.55;;;7.88;;
31206;SDS011;17834;52.992;8.856;2024-03-06T00:58:43;14.63;;;7.25;;
31206;SDS011;17834;52.992;8.856;2024-03-06T01:01:09;19.70;;;7.32;;
31206;SDS011;17834;52.992;8.856;2024-03-06T01:03:37;16.30;;;7.78;;
31206;SDS011;17834;52.992;8.856;2024-03-06T01:06:03;12.73;;;7.35;;
31206;SDS011;17834;52.992;8.856;2024-03-06T01:08:28;15.43;;;8.05;;
31206;SDS011;17834;52.992;8.856;2024-03-06T01:10:55;14.52;;;7.45;;
31206;SDS011;17834;52.992;8.856;2024-03-06T01:13:21;25.02;;;6.57;;
31206;SDS011;17834;52.992;8.856;2024-03-06T01:15:46;18.90;;;9.35;;
31206;SDS011;17834;52.992;8.856;2024-03-06T01:18:12;15.20;;;6.90;;
31206;SDS011;17834;52.992;8.856;2024-03-06T01:20:37;17.13;;;8.02;;
31206;SDS011;17834;52.992;8.856;2024-03-06T01:23:03;16.27;;;7.45;;
31206;SDS011;17834;52.992;8.856;2024-03-06T01:25:29;15.25;;;8.00;;
31206;SDS011;17834;52.992;8.856;2024-03-06T01:27:54;14.20;;;7.38;;
31206;SDS011;17834;52.992;8.856;2024-03-06T01:30:20;14.65;;;6.65;;
31206;SDS011;17834;52.992;8.856;2024-03-06T01:32:46;20.27;;;8.38;;
31206;SDS011;17834;52.992;8.856;2024-03-06T01:35:11;20.40;;;8.05;;
31206;SDS011;17834;52.992;8.856;2024-03-06T01:37:37;12.88;;;7.35;;
31206;SDS011;17834;52.992;8.856;2024-03-06T01:40:02;15.10;;;6.95;;
31206;SDS011;17834;52.992;8.856;2024-03-06T01:42:29;17.40;;;7.32;;
31206;SDS011;17834;52.992;8.856;2024-03-06T01:44:55;16.67;;;8.07;;
31206;SDS011;17834;52.992;8.856;2024-03-06T01:47:21;17.17;;;6.72;;
31206;SDS011;17834;52.992;8.856;2024-03-06T01:49:47;16.48;;;7.30;;
31206;SDS011;17834;52.992;8.856;2024-03-06T01:52:13;18.17;;;7.97;;
31206;SDS011;17834;52.992;8.856;2024-03-06T01:54:41;16.58;;;7.93;;
31206;SDS011;17834;52.992;8.856;2024-03-06T01:57:07;17.48;;;7.57;;
31206;SDS011;17834;52.992;8.856;2024-03-06T01:59:34;20.60;;;8.20;;
31206;SDS011;17834;52.992;8.856;2024-03-06T02:02:00;12.35;;;7.60;;
31206;SDS011;17834;52.992;8.856;2024-03-06T02:04:26;15.52;;;7.38;;
31206;SDS011;17834;52.992;8.856;2024-03-06T02:06:53;16.42;;;8.77;;
31206;SDS011;17834;52.992;8.856;2024-03-06T02:09:19;18.45;;;7.90;;
31206;SDS011;17834;52.992;8.856;2024-03-06T02:11:44;22.23;;;8.05;;
31206;SDS011;17834;52.992;8.856;2024-03-06T02:14:10;13.70;;;7.63;;
31206;SDS011;17834;52.992;8.856;2024-03-06T02:16:36;19.65;;;8.18;;
31206;SDS011;17834;52.992;8.856;2024-03-06T02:19:04;18.48;;;7.80;;
31206;SDS011;17834;52.992;8.856;2024-03-06T02:21:30;13.73;;;6.40;;
31206;SDS011;17834;52.992;8.856;2024-03-06T02:23:55;16.27;;;7.35;;
31206;SDS011;17834;52.992;8.856;2024-03-06T02:26:21;17.77;;;8.15;;
31206;SDS011;17834;52.992;8.856;2024-03-06T02:28:48;19.67;;;8.30;;
31206;SDS011;17834;52.992;8.856;2024-03-06T02:31:18;16.58;;;7.35;;
31206;SDS011;17834;52.992;8.856;2024-03-06T02:33:45;18.38;;;7.55;;
31206;SDS011;17834;52.992;8.856;2024-03-06T02:36:12;17.63;;;8.57;;
31206;SDS011;17834;52.992;8.856;2024-03-06T02:38:38;22.00;;;8.75;;
31206;SDS011;17834;52.992;8.856;2024-03-06T02:41:03;17.52;;;8.60;;
31206;SDS011;17834;52.992;8.856;2024-03-06T02:43:31;13.07;;;6.90;;
31206;SDS011;17834;52.992;8.856;2024-03-06T02:45:57;23.38;;;9.55;;
31206;SDS011;17834;52.992;8.856;2024-03-06T02:48:22;18.73;;;8.73;;
31206;SDS011;17834;52.992;8.856;2024-03-06T02:50:48;20.95;;;8.15;;
31206;SDS011;17834;52.992;8.856;2024-03-06T02:53:13;17.52;;;7.72;;
31206;SDS011;17834;52.992;8.856;2024-03-06T02:55:39;16.17;;;8.38;;
31206;SDS011;17834;52.992;8.856;2024-03-06T02:58:04;20.30;;;8.02;;
31206;SDS011;17834;52.992;8.856;2024-03-06T03:00:30;22.52;;;7.65;;
31206;SDS011;17834;52.992;8.856;2024-03-06T03:02:59;20.73;;;9.68;;
31206;SDS011;17834;52.992;8.856;2024-03-06T03:05:25;18.75;;;8.68;;
31206;SDS011;17834;52.992;8.856;2024-03-06T03:07:50;17.38;;;8.20;;
31206;SDS011;17834;52.992;8.856;2024-03-06T03:10:16;17.92;;;9.32;;
31206;SDS011;17834;52.992;8.856;2024-03-06T03:12:42;20.30;;;8.95;;
31206;SDS011;17834;52.992;8.856;2024-03-06T03:15:08;18.52;;;8.13;;
31206;SDS011;17834;52.992;8.856;2024-03-06T03:17:34;23.63;;;8.95;;
31206;SDS011;17834;52.992;8.856;2024-03-06T03:19:59;17.23;;;8.13;;
31206;SDS011;17834;52.992;8.856;2024-03-06T03:22:26;16.35;;;7.25;;
31206;SDS011;17834;52.992;8.856;2024-03-06T03:24:51;16.48;;;8.07;;
31206;SDS011;17834;52.992;8.856;2024-03-06T03:27:17;22.33;;;8.73;;
31206;SDS011;17834;52.992;8.856;2024-03-06T03:29:43;19.77;;;9.18;;
31206;SDS011;17834;52.992;8.856;2024-03-06T03:32:08;20.38;;;9.68;;
31206;SDS011;17834;52.992;8.856;2024-03-06T03:34:34;20.35;;;8.80;;
31206;SDS011;17834;52.992;8.856;2024-03-06T03:37:00;20.55;;;8.30;;
31206;SDS011;17834;52.992;8.856;2024-03-06T03:39:26;17.55;;;8.30;;
31206;SDS011;17834;52.992;8.856;2024-03-06T03:41:52;19.60;;;7.75;;
31206;SDS011;17834;52.992;8.856;2024-03-06T03:44:18;16.73;;;8.38;;
31206;SDS011;17834;52.992;8.856;2024-03-06T03:46:44;17.92;;;9.50;;
31206;SDS011;17834;52.992;8.856;2024-03-06T03:49:10;16.33;;;8.20;;
31206;SDS011;17834;52.992;8.856;2024-03-06T03:51:39;20.40;;;8.60;;
31206;SDS011;17834;52.992;8.856;2024-03-06T03:54:05;19.55;;;8.43;;
31206;SDS011;17834;52.992;8.856;2024-03-06T03:56:31;17.13;;;8.80;;
31206;SDS011;17834;52.992;8.856;2024-03-06T03:58:58;20.80;;;9.15;;
31206;SDS011;17834;52.992;8.856;2024-03-06T04:01:24;22.05;;;9.60;;
31206;SDS011;17834;52.992;8.856;2024-03-06T04:03:50;23.30;;;8.90;;
31206;SDS011;17834;52.992;8.856;2024-03-06T04:06:16;17.58;;;8.57;;
31206;SDS011;17834;52.992;8.856;2024-03-06T04:08:42;18.35;;;9.35;;
31206;SDS011;17834;52.992;8.856;2024-03-06T04:11:08;17.05;;;8.18;;
31206;SDS011;17834;52.992;8.856;2024-03-06T04:13:36;20.02;;;9.43;;
31206;SDS011;17834;52.992;8.856;2024-03-06T04:16:03;20.60;;;8.65;;
31206;SDS011;17834;52.992;8.856;2024-03-06T04:18:29;23.45;;;10.25;;
31206;SDS011;17834;52.992;8.856;2024-03-06T04:20:58;17.55;;;8.13;;
31206;SDS011;17834;52.992;8.856;2024-03-06T04:23:29;18.27;;;8.95;;
31206;SDS011;17834;52.992;8.856;2024-03-06T04:25:54;18.45;;;9.05;;
31206;SDS011;17834;52.992;8.856;2024-03-06T04:28:20;19.10;;;8.85;;
31206;SDS011;17834;52.992;8.856;2024-03-06T04:30:45;16.90;;;8.02;;
31206;SDS011;17834;52.992;8.856;2024-03-06T04:33:11;19.00;;;9.32;;
31206;SDS011;17834;52.992;8.856;2024-03-06T04:35:38;19.25;;;8.32;;
31206;SDS011;17834;52.992;8.856;2024-03-06T04:38:04;18.35;;;8.25;;
31206;SDS011;17834;52.992;8.856;2024-03-06T04:40:31;21.02;;;8.18;;
31206;SDS011;17834;52.992;8.856;2024-03-06T04:42:56;22.00;;;8.75;;
31206;SDS011;17834;52.992;8.856;2024-03-06T04:45:22;20.52;;;9.25;;
31206;SDS011;17834;52.992;8.856;2024-03-06T04:47:48;18.40;;;9.25;;
31206;SDS011;17834;52.992;8.856;2024-03-06T04:50:13;20.77;;;8.80;;
31206;SDS011;17834;52.992;8.856;2024-03-06T04:52:39;25.60;;;10.13;;
31206;SDS011;17834;52.992;8.856;2024-03-06T04:55:05;21.30;;;9.80;;
31206;SDS011;17834;52.992;8.856;2024-03-06T04:57:32;18.75;;;8.05;;
31206;SDS011;17834;52.992;8.856;2024-03-06T04:59:57;19.40;;;9.48;;
31206;SDS011;17834;52.992;8.856;2024-03-06T05:02:23;21.40;;;9.27;;
31206;SDS011;17834;52.992;8.856;2024-03-06T05:04:50;18.65;;;8.10;;
31206;SDS011;17834;52.992;8.856;2024-03-06T05:07:16;22.05;;;9.50;;
31206;SDS011;17834;52.992;8.856;2024-03-06T05:09:41;24.48;;;8.73;;
31206;SDS011;17834;52.992;8.856;2024-03-06T05:12:07;21.95;;;9.35;;
31206;SDS011;17834;52.992;8.856;2024-03-06T05:14:33;26.58;;;8.95;;
31206;SDS011;17834;52.992;8.856;2024-03-06T05:16:58;19.63;;;8.88;;
31206;SDS011;17834;52.992;8.856;2024-03-06T05:19:24;20.63;;;9.30;;
31206;SDS011;17834;52.992;8.856;2024-03-06T05:21:56;19.73;;;8.07;;
31206;SDS011;17834;52.992;8.856;2024-03-06T05:24:25;19.83;;;7.95;;
31206;SDS011;17834;52.992;8.856;2024-03-06T05:26:50;18.40;;;8.13;;
31206;SDS011;17834;52.992;8.856;2024-03-06T05:29:16;23.90;;;8.98;;
31206;SDS011;17834;52.992;8.856;2024-03-06T05:31:41;20.98;;;10.00;;
31206;SDS011;17834;52.992;8.856;2024-03-06T05:34:07;15.63;;;8.55;;
31206;SDS011;17834;52.992;8.856;2024-03-06T05:36:33;21.20;;;7.90;;
31206;SDS011;17834;52.992;8.856;2024-03-06T05:38:58;20.45;;;8.40;;
31206;SDS011;17834;52.992;8.856;2024-03-06T05:41:23;15.73;;;8.77;;
31206;SDS011;17834;52.992;8.856;2024-03-06T05:43:49;22.95;;;9.07;;
31206;SDS011;17834;52.992;8.856;2024-03-06T05:46:14;22.90;;;8.35;;
31206;SDS011;17834;52.992;8.856;2024-03-06T05:48:40;16.98;;;7.82;;
31206;SDS011;17834;52.992;8.856;2024-03-06T05:51:06;18.85;;;8.05;;
31206;SDS011;17834;52.992;8.856;2024-03-06T05:53:35;20.40;;;8.50;;
31206;SDS011;17834;52.992;8.856;2024-03-06T05:56:03;17.27;;;7.90;;
31206;SDS011;17834;52.992;8.856;2024-03-06T05:58:30;29.15;;;8.35;;
31206;SDS011;17834;52.992;8.856;2024-03-06T06:00:56;19.90;;;8.18;;
31206;SDS011;17834;52.992;8.856;2024-03-06T06:03:21;17.55;;;7.90;;
31206;SDS011;17834;52.992;8.856;2024-03-06T06:05:47;23.25;;;8.23;;
31206;SDS011;17834;52.992;8.856;2024-03-06T06:08:12;20.63;;;9.90;;
31206;SDS011;17834;52.992;8.856;2024-03-06T06:10:38;18.88;;;8.20;;
31206;SDS011;17834;52.992;8.856;2024-03-06T06:13:03;15.52;;;8.40;;
31206;SDS011;17834;52.992;8.856;2024-03-06T06:15:29;21.35;;;8.82;;
31206;SDS011;17834;52.992;8.856;2024-03-06T06:17:55;16.70;;;8.48;;
31206;SDS011;17834;52.992;8.856;2024-03-06T06:20:21;25.17;;;9.45;;
31206;SDS011;17834;52.992;8.856;2024-03-06T06:22:46;21.50;;;9.82;;
31206;SDS011;17834;52.992;8.856;2024-03-06T06:25:12;16.83;;;8.63;;
31206;SDS011;17834;52.992;8.856;2024-03-06T06:27:37;24.63;;;9.90;;
31206;SDS011;17834;52.992;8.856;2024-03-06T06:30:04;27.73;;;11.02;;
31206;SDS011;17834;52.992;8.856;2024-03-06T06:32:30;21.92;;;10.85;;
31206;SDS011;17834;52.992;8.856;2024-03-06T06:34:55;19.60;;;10.02;;
31206;SDS011;17834;52.992;8.856;2024-03-06T06:37:21;23.67;;;9.20;;
31206;SDS011;17834;52.992;8.856;2024-03-06T06:39:46;22.75;;;9.65;;
31206;SDS011;17834;52.992;8.856;2024-03-06T06:42:13;22.10;;;9.65;;
31206;SDS011;17834;52.992;8.856;2024-03-06T06:44:38;19.83;;;9.57;;
31206;SDS011;17834;52.992;8.856;2024-03-06T06:47:04;23.20;;;10.38;;
31206;SDS011;17834;52.992;8.856;2024-03-06T06:49:29;20.35;;;9.00;;
31206;SDS011;17834;52.992;8.856;2024-03-06T06:51:55;22.55;;;10.50;;
31206;SDS011;17834;52.992;8.856;2024-03-06T06:54:21;21.10;;;9.70;;
31206;SDS011;17834;52.992;8.856;2024-03-06T06:56:47;18.83;;;8.82;;
31206;SDS011;17834;52.992;8.856;2024-03-06T06:59:13;15.80;;;8.25;;
31206;SDS011;17834;52.992;8.856;2024-03-06T07:01:39;21.17;;;8.73;;
31206;SDS011;17834;52.992;8.856;2024-03-06T07:04:06;18.55;;;8.13;;
31206;SDS011;17834;52.992;8.856;2024-03-06T07:06:32;15.00;;;8.07;;
31206;SDS011;17834;52.992;8.856;2024-03-06T07:08:58;21.70;;;8.75;;
31206;SDS011;17834;52.992;8.856;2024-03-06T07:11:24;18.63;;;8.98;;
31206;SDS011;17834;52.992;8.856;2024-03-06T07:13:50;20.50;;;9.15;;
31206;SDS011;17834;52.992;8.856;2024-03-06T07:16:16;22.52;;;9.65;;
31206;SDS011;17834;52.992;8.856;2024-03-06T07:18:42;22.50;;;9.00;;
31206;SDS011;17834;52.992;8.856;2024-03-06T07:21:08;19.95;;;8.38;;
31206;SDS011;17834;52.992;8.856;2024-03-06T07:23:34;19.90;;;8.38;;
31206;SDS011;17834;52.992;8.856;2024-03-06T07:26:00;17.50;;;8.30;;
31206;SDS011;17834;52.992;8.856;2024-03-06T07:28:26;19.90;;;8.75;;
31206;SDS011;17834;52.992;8.856;2024-03-06T07:30:52;18.58;;;9.30;;
31206;SDS011;17834;52.992;8.856;2024-03-06T07:33:18;21.58;;;8.25;;
31206;SDS011;17834;52.992;8.856;2024-03-06T07:35:44;22.98;;;8.95;;
31206;SDS011;17834;52.992;8.856;2024-03-06T07:38:10;19.15;;;8.10;;
31206;SDS011;17834;52.992;8.856;2024-03-06T07:40:36;18.85;;;9.10;;
31206;SDS011;17834;52.992;8.856;2024-03-06T07:43:02;17.83;;;7.93;;
31206;SDS011;17834;52.992;8.856;2024-03-06T07:45:29;19.60;;;8.00;;
31206;SDS011;17834;52.992;8.856;2024-03-06T07:47:55;21.15;;;7.78;;
31206;SDS011;17834;52.992;8.856;2024-03-06T07:50:21;22.80;;;9.50;;
31206;SDS011;17834;52.992;8.856;2024-03-06T07:52:47;26.52;;;8.32;;
31206;SDS011;17834;52.992;8.856;2024-03-06T07:55:14;23.13;;;9.38;;
31206;SDS011;17834;52.992;8.856;2024-03-06T07:57:40;20.55;;;9.27;;
31206;SDS011;17834;52.992;8.856;2024-03-06T08:00:06;23.77;;;8.43;;
31206;SDS011;17834;52.992;8.856;2024-03-06T08:02:39;25.42;;;9.18;;
31206;SDS011;17834;52.992;8.856;2024-03-06T08:05:07;22.08;;;9.45;;
31206;SDS011;17834;52.992;8.856;2024-03-06T08:07:34;19.08;;;8.50;;
31206;SDS011;17834;52.992;8.856;2024-03-06T08:10:00;23.83;;;8.63;;
31206;SDS011;17834;52.992;8.856;2024-03-06T08:12:27;20.60;;;9.27;;
31206;SDS011;17834;52.992;8.856;2024-03-06T08:14:53;18.23;;;8.43;;
31206;SDS011;17834;52.992;8.856;2024-03-06T08:17:20;20.42;;;8.63;;
31206;SDS011;17834;52.992;8.856;2024-03-06T08:19:46;20.83;;;8.07;;
31206;SDS011;17834;52.992;8.856;2024-03-06T08:22:12;18.75;;;8.88;;
31206;SDS011;17834;52.992;8.856;2024-03-06T08:24:38;20.08;;;8.55;;
31206;SDS011;17834;52.992;8.856;2024-03-06T08:27:05;19.40;;;9.00;;
31206;SDS011;17834;52.992;8.856;2024-03-06T08:29:31;18.70;;;8.48;;
31206;SDS011;17834;52.992;8.856;2024-03-06T08:31:57;18.95;;;9.15;;
31206;SDS011;17834;52.992;8.856;2024-03-06T08:34:24;23.58;;;9.20;;
31206;SDS011;17834;52.992;8.856;2024-03-06T08:36:50;18.17;;;8.32;;
31206;SDS011;17834;52.992;8.856;2024-03-06T08:39:18;22.55;;;7.90;;
31206;SDS011;17834;52.992;8.856;2024-03-06T08:41:44;19.67;;;8.60;;
31206;SDS011;17834;52.992;8.856;2024-03-06T08:44:10;19.05;;;8.65;;
31206;SDS011;17834;52.992;8.856;2024-03-06T08:46:36;15.65;;;7.80;;
31206;SDS011;17834;52.992;8.856;2024-03-06T08:49:02;19.88;;;8.75;;
31206;SDS011;17834;52.992;8.856;2024-03-06T08:51:28;19.13;;;9.27;;
31206;SDS011;17834;52.992;8.856;2024-03-06T08:53:54;18.70;;;9.35;;
31206;SDS011;17834;52.992;8.856;2024-03-06T08:56:20;19.92;;;9.20;;
31206;SDS011;17834;52.992;8.856;2024-03-06T08:58:45;19.02;;;9.52;;
31206;SDS011;17834;52.992;8.856;2024-03-06T09:01:11;18.45;;;8.45;;
31206;SDS011;17834;52.992;8.856;2024-03-06T09:03:37;17.45;;;7.55;;
31206;SDS011;17834;52.992;8.856;2024-03-06T09:06:03;18.95;;;8.88;;
31206;SDS011;17834;52.992;8.856;2024-03-06T09:08:29;17.42;;;7.60;;
31206;SDS011;17834;52.992;8.856;2024-03-06T09:10:55;21.27;;;8.20;;
31206;SDS011;17834;52.992;8.856;2024-03-06T09:13:23;18.17;;;8.55;;
31206;SDS011;17834;52.992;8.856;2024-03-06T09:15:49;20.08;;;9.02;;
31206;SDS011;17834;52.992;8.856;2024-03-06T09:18:15;21.35;;;9.00;;
31206;SDS011;17834;52.992;8.856;2024-03-06T09:20:42;21.30;;;9.18;;
31206;SDS011;17834;52.992;8.856;2024-03-06T09:23:08;21.02;;;9.07;;
31206;SDS011;17834;52.992;8.856;2024-03-06T09:25:34;19.08;;;9.48;;
31206;SDS011;17834;52.992;8.856;2024-03-06T09:28:00;16.38;;;8.73;;
31206;SDS011;17834;52.992;8.856;2024-03-06T09:30:29;17.35;;;8.68;;
31206;SDS011;17834;52.992;8.856;2024-03-06T09:32:55;23.10;;;9.27;;
31206;SDS011;17834;52.992;8.856;2024-03-06T09:35:21;19.13;;;8.80;;
31206;SDS011;17834;52.992;8.856;2024-03-06T09:37:47;21.60;;;9.77;;
31206;SDS011;17834;52.992;8.856;2024-03-06T09:40:20;23.27;;;8.93;;
31206;SDS011;17834;52.992;8.856;2024-03-06T09:42:47;26.73;;;9.20;;
31206;SDS011;17834;52.992;8.856;2024-03-06T09:45:14;16.20;;;8.40;;
31206;SDS011;17834;52.992;8.856;2024-03-06T09:47:40;23.08;;;10.10;;
31206;SDS011;17834;52.992;8.856;2024-03-06T09:50:08;16.23;;;8.02;;
31206;SDS011;17834;52.992;8.856;2024-03-06T09:52:34;19.00;;;8.75;;
31206;SDS011;17834;52.992;8.856;2024-03-06T09:55:02;21.40;;;8.75;;
31206;SDS011;17834;52.992;8.856;2024-03-06T09:57:28;17.42;;;9.10;;
31206;SDS011;17834;52.992;8.856;2024-03-06T09:59:54;20.05;;;9.25;;
31206;SDS011;17834;52.992;8.856;2024-03-06T10:04:56;15.43;;;6.70;;
31206;SDS011;17834;52.992;8.856;2024-03-06T10:07:22;20.67;;;8.85;;
31206;SDS011;17834;52.992;8.856;2024-03-06T10:09:48;22.30;;;8.70;;
31206;SDS011;17834;52.992;8.856;2024-03-06T10:12:16;19.98;;;9.40;;
31206;SDS011;17834;52.992;8.856;2024-03-06T10:14:50;20.25;;;9.82;;
31206;SDS011;17834;52.992;8.856;2024-03-06T10:17:20;26.23;;;9.57;;
31206;SDS011;17834;52.992;8.856;2024-03-06T10:19:51;20.35;;;8.55;;
31206;SDS011;17834;52.992;8.856;2024-03-06T10:22:20;18.42;;;9.15;;
31206;SDS011;17834;52.992;8.856;2024-03-06T10:24:49;17.05;;;8.23;;
31206;SDS011;17834;52.992;8.856;2024-03-06T10:27:15;19.38;;;9.50;;
31206;SDS011;17834;52.992;8.856;2024-03-06T10:29:46;18.58;;;9.55;;
31206;SDS011;17834;52.992;8.856;2024-03-06T10:32:26;17.25;;;10.05;;
31206;SDS011;17834;52.992;8.856;2024-03-06T10:34:52;21.60;;;9.27;;
31206;SDS011;17834;52.992;8.856;2024-03-06T10:37:18;22.02;;;9.77;;
31206;SDS011;17834;52.992;8.856;2024-03-06T10:39:46;21.95;;;9.40;;
31206;SDS011;17834;52.992;8.856;2024-03-06T10:42:14;21.40;;;9.18;;
31206;SDS011;17834;52.992;8.856;2024-03-06T10:44:49;19.88;;;8.68;;
31206;SDS011;17834;52.992;8.856;2024-03-06T10:47:17;19.20;;;9.50;;
31206;SDS011;17834;52.992;8.856;2024-03-06T10:49:44;23.10;;;10.57;;
31206;SDS011;17834;52.992;8.856;2024-03-06T10:52:11;21.48;;;10.45;;
31206;SDS011;17834;52.992;8.856;2024-03-06T10:54:37;27.60;;;10.60;;
31206;SDS011;17834;52.992;8.856;2024-03-06T10:57:07;21.15;;;9.30;;
31206;SDS011;17834;52.992;8.856;2024-03-06T10:59:34;20.27;;;9.75;;
31206;SDS011;17834;52.992;8.856;2024-03-06T11:02:00;17.88;;;9.40;;
31206;SDS011;17834;52.992;8.856;2024-03-06T11:04:27;23.38;;;11.10;;
31206;SDS011;17834;52.992;8.856;2024-03-06T11:06:54;20.15;;;10.00;;
31206;SDS011;17834;52.992;8.856;2024-03-06T11:09:20;20.75;;;10.32;;
31206;SDS011;17834;52.992;8.856;2024-03-06T11:11:52;22.17;;;10.10;;
31206;SDS011;17834;52.992;8.856;2024-03-06T11:14:21;23.08;;;10.23;;
31206;SDS011;17834;52.992;8.856;2024-03-06T11:16:57;23.15;;;10.27;;
31206;SDS011;17834;52.992;8.856;2024-03-06T11:19:24;24.30;;;11.48;;
31206;SDS011;17834;52.992;8.856;2024-03-06T11:21:50;19.30;;;10.25;;
31206;SDS011;17834;52.992;8.856;2024-03-06T11:26:46;21.63;;;10.02;;
31206;SDS011;17834;52.992;8.856;2024-03-06T11:29:16;24.27;;;10.48;;
31206;SDS011;17834;52.992;8.856;2024-03-06T11:31:57;22.50;;;10.00;;
31206;SDS011;17834;52.992;8.856;2024-03-06T11:34:25;21.48;;;10.15;;
31206;SDS011;17834;52.992;8.856;2024-03-06T11:36:56;16.63;;;9.02;;
31206;SDS011;17834;52.992;8.856;2024-03-06T11:39:22;22.48;;;10.07;;
31206;SDS011;17834;52.992;8.856;2024-03-06T11:41:49;23.38;;;9.95;;
31206;SDS011;17834;52.992;8.856;2024-03-06T11:44:16;19.75;;;10.43;;
31206;SDS011;17834;52.992;8.856;2024-03-06T11:46:42;19.60;;;10.50;;
31206;SDS011;17834;52.992;8.856;2024-03-06T11:49:15;20.23;;;9.63;;
31206;SDS011;17834;52.992;8.856;2024-03-06T11:51:45;19.15;;;9.63;;
31206;SDS011;17834;52.992;8.856;2024-03-06T11:54:12;26.60;;;10.75;;
31206;SDS011;17834;52.992;8.856;2024-03-06T11:56:43;17.52;;;9.30;;
31206;SDS011;17834;52.992;8.856;2024-03-06T11:59:10;20.13;;;9.23;;
31206;SDS011;17834;52.992;8.856;2024-03-06T12:01:37;20.88;;;10.25;;
31206;SDS011;17834;52.992;8.856;2024-03-06T12:04:03;21.65;;;10.07;;
31206;SDS011;17834;52.992;8.856;2024-03-06T12:06:30;19.98;;;9.10;;
31206;SDS011;17834;52.992;8.856;2024-03-06T12:08:56;16.40;;;9.00;;
31206;SDS011;17834;52.992;8.856;2024-03-06T12:11:22;20.45;;;9.85;;
31206;SDS011;17834;52.992;8.856;2024-03-06T12:13:50;17.63;;;9.77;;
31206;SDS011;17834;52.992;8.856;2024-03-06T12:16:16;16.67;;;8.88;;
31206;SDS011;17834;52.992;8.856;2024-03-06T12:18:42;17.90;;;9.30;;
31206;SDS011;17834;52.992;8.856;2024-03-06T12:21:10;17.98;;;9.48;;
31206;SDS011;17834;52.992;8.856;2024-03-06T12:23:36;15.35;;;9.10;;
31206;SDS011;17834;52.992;8.856;2024-03-06T12:26:06;24.35;;;9.48;;
31206;SDS011;17834;52.992;8.856;2024-03-06T12:28:35;17.92;;;9.13;;
31206;SDS011;17834;52.992;8.856;2024-03-06T12:31:04;21.30;;;10.48;;
31206;SDS011;17834;52.992;8.856;2024-03-06T12:33:30;17.02;;;9.35;;
31206;SDS011;17834;52.992;8.856;2024-03-06T12:36:00;27.58;;;10.00;;
31206;SDS011;17834;52.992;8.856;2024-03-06T12:38:28;18.98;;;9.90;;
31206;SDS011;17834;52.992;8.856;2024-03-06T12:40:54;20.73;;;10.95;;
31206;SDS011;17834;52.992;8.856;2024-03-06T12:43:20;16.80;;;9.88;;
31206;SDS011;17834;52.992;8.856;2024-03-06T12:45:46;18.83;;;9.40;;
31206;SDS011;17834;52.992;8.856;2024-03-06T12:48:12;22.52;;;9.32;;
31206;SDS011;17834;52.992;8.856;2024-03-06T12:50:38;23.77;;;10.85;;
31206;SDS011;17834;52.992;8.856;2024-03-06T12:53:04;19.90;;;10.60;;
31206;SDS011;17834;52.992;8.856;2024-03-06T12:55:30;21.45;;;10.27;;
31206;SDS011;17834;52.992;8.856;2024-03-06T12:57:57;18.48;;;9.65;;
31206;SDS011;17834;52.992;8.856;2024-03-06T13:00:23;19.80;;;10.10;;
31206;SDS011;17834;52.992;8.856;2024-03-06T13:02:49;25.17;;;10.77;;
31206;SDS011;17834;52.992;8.856;2024-03-06T13:05:16;23.42;;;10.10;;
31206;SDS011;17834;52.992;8.856;2024-03-06T13:07:45;22.35;;;9.82;;
31206;SDS011;17834;52.992;8.856;2024-03-06T13:10:11;24.17;;;11.30;;
31206;SDS011;17834;52.992;8.856;2024-03-06T13:12:38;23.70;;;10.90;;
31206;SDS011;17834;52.992;8.856;2024-03-06T13:15:04;27.35;;;9.93;;
31206;SDS011;17834;52.992;8.856;2024-03-06T13:17:32;24.33;;;10.73;;
31206;SDS011;17834;52.992;8.856;2024-03-06T13:19:58;22.50;;;10.20;;
31206;SDS011;17834;52.992;8.856;2024-03-06T13:22:24;21.83;;;10.60;;
31206;SDS011;17834;52.992;8.856;2024-03-06T13:24:50;25.23;;;10.98;;
31206;SDS011;17834;52.992;8.856;2024-03-06T13:27:16;23.42;;;10.95;;
31206;SDS011;17834;52.992;8.856;2024-03-06T13:29:42;20.10;;;10.82;;
31206;SDS011;17834;52.992;8.856;2024-03-06T13:32:08;18.98;;;9.95;;
31206;SDS011;17834;52.992;8.856;2024-03-06T13:34:34;22.33;;;10.52;;
31206;SDS011;17834;52.992;8.856;2024-03-06T13:37:00;22.17;;;11.88;;
31206;SDS011;17834;52.992;8.856;2024-03-06T13:39:26;25.08;;;10.65;;
31206;SDS011;17834;52.992;8.856;2024-03-06T13:41:52;21.15;;;10.32;;
31206;SDS011;17834;52.992;8.856;2024-03-06T13:44:18;21.55;;;10.23;;
31206;SDS011;17834;52.992;8.856;2024-03-06T13:46:46;25.25;;;11.15;;
31206;SDS011;17834;52.992;8.856;2024-03-06T13:49:33;22.55;;;10.85;;
31206;SDS011;17834;52.992;8.856;2024-03-06T13:51:58;20.60;;;10.07;;
31206;SDS011;17834;52.992;8.856;2024-03-06T13:54:24;22.65;;;11.20;;
31206;SDS011;17834;52.992;8.856;2024-03-06T13:56:50;26.17;;;11.43;;
31206;SDS011;17834;52.992;8.856;2024-03-06T13:59:16;26.15;;;11.52;;
31206;SDS011;17834;52.992;8.856;2024-03-06T14:01:42;31.38;;;11.43;;
31206;SDS011;17834;52.992;8.856;2024-03-06T14:04:08;25.15;;;11.05;;
31206;SDS011;17834;52.992;8.856;2024-03-06T14:06:34;26.17;;;11.68;;
31206;SDS011;17834;52.992;8.856;2024-03-06T14:09:00;28.05;;;11.40;;
31206;SDS011;17834;52.992;8.856;2024-03-06T14:11:26;21.27;;;11.65;;
31206;SDS011;17834;52.992;8.856;2024-03-06T14:13:52;22.02;;;10.40;;
31206;SDS011;17834;52.992;8.856;2024-03-06T14:16:19;29.63;;;11.40;;
31206;SDS011;17834;52.992;8.856;2024-03-06T14:18:45;22.95;;;10.40;;
31206;SDS011;17834;52.992;8.856;2024-03-06T14:21:10;26.20;;;10.45;;
31206;SDS011;17834;52.992;8.856;2024-03-06T14:23:36;22.42;;;11.90;;
31206;SDS011;17834;52.992;8.856;2024-03-06T14:26:03;19.35;;;10.02;;
31206;SDS011;17834;52.992;8.856;2024-03-06T14:28:29;23.42;;;11.00;;
31206;SDS011;17834;52.992;8.856;2024-03-06T14:30:55;22.80;;;10.70;;